Airmont, New York
Current Conditions -  °F | °C
As of 12:51 PM on Friday 24 Oct 2014 (Local Time) from KTEB Reporting Station
Overcast Overcast  
Wind Chill: 59°   Ceiling: 3700
Heat Index: 59°   Visibility: 10mi
Dew Point: 43°   Wind: 15mph
Humidity: 55%   Direction: 310°NW
Pressure: 29.78"   Gusts: 24mph
Location:  41.1112°N, 74.0777°W
Report Text: KTEB 241651Z 31013G21KT 10SM OVC037 15/06 A2978 RMK AO2 SLP084 T01500061
Loading
Personal Weather Stations






























Interactive Weather Map
Tropical Storm Tracking
New forecast layout! Learn more

10-Day Weather Forecast

Advertisements
Track Severe Weather on mobile